sensor_id;sensor_type;location;lat;lon;timestamp;temperature;humidity
35381;DHT22;21486;51.916;8.378;2023-05-14T00:01:04;13.20;81.90
35381;DHT22;21486;51.916;8.378;2023-05-14T00:03:29;13.30;81.90
35381;DHT22;21486;51.916;8.378;2023-05-14T00:05:55;13.20;81.90
35381;DHT22;21486;51.916;8.378;2023-05-14T00:08:20;13.20;80.70
35381;DHT22;21486;51.916;8.378;2023-05-14T00:10:46;13.20;82.50
35381;DHT22;21486;51.916;8.378;2023-05-14T00:13:11;13.10;83.30
35381;DHT22;21486;51.916;8.378;2023-05-14T00:15:37;13.10;84.70
35381;DHT22;21486;51.916;8.378;2023-05-14T00:18:02;13.00;84.70
35381;DHT22;21486;51.916;8.378;2023-05-14T00:20:28;13.00;84.70
35381;DHT22;21486;51.916;8.378;2023-05-14T00:22:53;13.00;83.50
35381;DHT22;21486;51.916;8.378;2023-05-14T00:25:19;12.90;86.30
35381;DHT22;21486;51.916;8.378;2023-05-14T00:27:45;12.80;84.60
35381;DHT22;21486;51.916;8.378;2023-05-14T00:33:04;12.80;87.90
35381;DHT22;21486;51.916;8.378;2023-05-14T00:35:30;12.70;88.40
35381;DHT22;21486;51.916;8.378;2023-05-14T00:37:56;12.70;88.40
35381;DHT22;21486;51.916;8.378;2023-05-14T00:40:26;12.60;88.60
35381;DHT22;21486;51.916;8.378;2023-05-14T00:42:52;12.60;89.90
35381;DHT22;21486;51.916;8.378;2023-05-14T00:45:17;12.60;90.60
35381;DHT22;21486;51.916;8.378;2023-05-14T00:47:43;12.50;90.60
35381;DHT22;21486;51.916;8.378;2023-05-14T00:50:09;12.50;90.50
35381;DHT22;21486;51.916;8.378;2023-05-14T00:52:39;12.40;91.20
35381;DHT22;21486;51.916;8.378;2023-05-14T00:55:05;12.40;91.50
35381;DHT22;21486;51.916;8.378;2023-05-14T00:57:34;12.40;91.90
35381;DHT22;21486;51.916;8.378;2023-05-14T01:00:01;12.30;91.80
35381;DHT22;21486;51.916;8.378;2023-05-14T01:02:27;12.30;92.10
35381;DHT22;21486;51.916;8.378;2023-05-14T01:04:53;12.30;92.40
35381;DHT22;21486;51.916;8.378;2023-05-14T01:07:29;12.20;92.70
35381;DHT22;21486;51.916;8.378;2023-05-14T01:13:01;12.10;93.00
35381;DHT22;21486;51.916;8.378;2023-05-14T01:15:30;12.00;93.50
35381;DHT22;21486;51.916;8.378;2023-05-14T01:18:07;12.00;94.10
35381;DHT22;21486;51.916;8.378;2023-05-14T01:20:33;11.90;94.30
35381;DHT22;21486;51.916;8.378;2023-05-14T01:22:58;12.00;94.20
35381;DHT22;21486;51.916;8.378;2023-05-14T01:25:25;11.90;94.30
35381;DHT22;21486;51.916;8.378;2023-05-14T01:28:05;11.80;94.80
35381;DHT22;21486;51.916;8.378;2023-05-14T01:30:39;11.80;94.90
35381;DHT22;21486;51.916;8.378;2023-05-14T01:33:10;11.70;95.50
35381;DHT22;21486;51.916;8.378;2023-05-14T01:35:36;11.70;95.80
35381;DHT22;21486;51.916;8.378;2023-05-14T01:38:04;11.60;95.80
35381;DHT22;21486;51.916;8.378;2023-05-14T01:40:32;11.50;95.50
35381;DHT22;21486;51.916;8.378;2023-05-14T01:42:59;11.50;95.80
35381;DHT22;21486;51.916;8.378;2023-05-14T01:45:25;11.40;95.50
35381;DHT22;21486;51.916;8.378;2023-05-14T01:47:51;11.40;95.60
35381;DHT22;21486;51.916;8.378;2023-05-14T01:50:17;11.40;96.00
35381;DHT22;21486;51.916;8.378;2023-05-14T01:52:43;11.30;96.40
35381;DHT22;21486;51.916;8.378;2023-05-14T01:55:09;11.30;96.90
35381;DHT22;21486;51.916;8.378;2023-05-14T01:57:35;11.30;96.90
35381;DHT22;21486;51.916;8.378;2023-05-14T02:00:00;11.40;96.60
35381;DHT22;21486;51.916;8.378;2023-05-14T02:02:26;11.40;96.30
35381;DHT22;21486;51.916;8.378;2023-05-14T02:04:52;11.30;96.60
35381;DHT22;21486;51.916;8.378;2023-05-14T02:07:17;11.20;96.80
35381;DHT22;21486;51.916;8.378;2023-05-14T02:09:43;11.10;97.00
35381;DHT22;21486;51.916;8.378;2023-05-14T02:12:08;11.10;97.40
35381;DHT22;21486;51.916;8.378;2023-05-14T02:14:35;11.00;98.20
35381;DHT22;21486;51.916;8.378;2023-05-14T02:17:01;10.90;98.50
35381;DHT22;21486;51.916;8.378;2023-05-14T02:19:28;11.00;98.70
35381;DHT22;21486;51.916;8.378;2023-05-14T02:21:53;10.90;98.40
35381;DHT22;21486;51.916;8.378;2023-05-14T02:24:19;10.90;98.70
35381;DHT22;21486;51.916;8.378;2023-05-14T02:26:44;10.90;99.10
35381;DHT22;21486;51.916;8.378;2023-05-14T02:29:10;10.80;99.40
35381;DHT22;21486;51.916;8.378;2023-05-14T02:31:36;10.80;99.50
35381;DHT22;21486;51.916;8.378;2023-05-14T02:34:02;10.80;99.30
35381;DHT22;21486;51.916;8.378;2023-05-14T02:36:28;10.80;99.50
35381;DHT22;21486;51.916;8.378;2023-05-14T02:38:53;10.80;99.50
35381;DHT22;21486;51.916;8.378;2023-05-14T02:41:19;10.70;99.70
35381;DHT22;21486;51.916;8.378;2023-05-14T02:43:45;10.70;99.40
35381;DHT22;21486;51.916;8.378;2023-05-14T02:46:11;10.70;99.40
35381;DHT22;21486;51.916;8.378;2023-05-14T02:48:36;10.60;99.40
35381;DHT22;21486;51.916;8.378;2023-05-14T02:51:02;10.60;99.90
35381;DHT22;21486;51.916;8.378;2023-05-14T02:53:27;10.50;99.90
35381;DHT22;21486;51.916;8.378;2023-05-14T02:55:53;10.50;99.90
35381;DHT22;21486;51.916;8.378;2023-05-14T02:58:19;10.50;99.90
35381;DHT22;21486;51.916;8.378;2023-05-14T03:00:44;10.40;99.90
35381;DHT22;21486;51.916;8.378;2023-05-14T03:03:10;10.50;99.90
35381;DHT22;21486;51.916;8.378;2023-05-14T03:05:35;10.50;99.90
35381;DHT22;21486;51.916;8.378;2023-05-14T03:08:01;10.40;99.90
35381;DHT22;21486;51.916;8.378;2023-05-14T03:10:26;10.40;99.90
35381;DHT22;21486;51.916;8.378;2023-05-14T03:12:52;10.40;99.90
35381;DHT22;21486;51.916;8.378;2023-05-14T03:17:44;10.30;99.90
35381;DHT22;21486;51.916;8.378;2023-05-14T03:20:10;10.30;99.90
35381;DHT22;21486;51.916;8.378;2023-05-14T03:22:36;10.30;99.90
35381;DHT22;21486;51.916;8.378;2023-05-14T03:25:02;10.40;99.90
35381;DHT22;21486;51.916;8.378;2023-05-14T03:27:27;10.30;99.90
35381;DHT22;21486;51.916;8.378;2023-05-14T03:29:53;10.30;99.90
35381;DHT22;21486;51.916;8.378;2023-05-14T03:32:19;10.40;99.90
35381;DHT22;21486;51.916;8.378;2023-05-14T03:34:45;10.40;99.90
35381;DHT22;21486;51.916;8.378;2023-05-14T03:37:11;10.30;99.90
35381;DHT22;21486;51.916;8.378;2023-05-14T03:39:36;10.30;99.90
35381;DHT22;21486;51.916;8.378;2023-05-14T03:42:02;10.30;99.90
35381;DHT22;21486;51.916;8.378;2023-05-14T03:44:28;10.30;99.90
35381;DHT22;21486;51.916;8.378;2023-05-14T03:46:53;10.30;99.90
35381;DHT22;21486;51.916;8.378;2023-05-14T03:49:19;10.30;99.90
35381;DHT22;21486;51.916;8.378;2023-05-14T03:51:44;10.40;99.90
35381;DHT22;21486;51.916;8.378;2023-05-14T03:54:10;10.30;99.90
35381;DHT22;21486;51.916;8.378;2023-05-14T03:56:35;10.30;99.90
35381;DHT22;21486;51.916;8.378;2023-05-14T03:59:01;10.30;99.90
35381;DHT22;21486;51.916;8.378;2023-05-14T04:01:26;10.40;99.90
35381;DHT22;21486;51.916;8.378;2023-05-14T04:03:52;10.40;99.90
35381;DHT22;21486;51.916;8.378;2023-05-14T04:06:18;10.40;99.90
35381;DHT22;21486;51.916;8.378;2023-05-14T04:08:43;10.30;99.90
35381;DHT22;21486;51.916;8.378;2023-05-14T04:11:09;10.40;99.90
35381;DHT22;21486;51.916;8.378;2023-05-14T04:13:34;10.50;99.90
35381;DHT22;21486;51.916;8.378;2023-05-14T04:16:00;10.40;99.90
35381;DHT22;21486;51.916;8.378;2023-05-14T04:18:25;10.40;99.90
35381;DHT22;21486;51.916;8.378;2023-05-14T04:20:51;10.60;99.90
35381;DHT22;21486;51.916;8.378;2023-05-14T04:23:16;10.60;99.90
35381;DHT22;21486;51.916;8.378;2023-05-14T04:25:42;10.60;99.90
35381;DHT22;21486;51.916;8.378;2023-05-14T04:28:07;10.60;99.90
35381;DHT22;21486;51.916;8.378;2023-05-14T04:30:33;10.70;99.90
35381;DHT22;21486;51.916;8.378;2023-05-14T04:32:58;10.80;99.90
35381;DHT22;21486;51.916;8.378;2023-05-14T04:35:24;11.30;99.90
35381;DHT22;21486;51.916;8.378;2023-05-14T04:37:50;12.40;98.80
35381;DHT22;21486;51.916;8.378;2023-05-14T04:40:15;13.40;95.10
35381;DHT22;21486;51.916;8.378;2023-05-14T04:42:41;14.20;92.40
35381;DHT22;21486;51.916;8.378;2023-05-14T04:45:08;14.80;90.00
35381;DHT22;21486;51.916;8.378;2023-05-14T04:47:34;15.10;87.00
35381;DHT22;21486;51.916;8.378;2023-05-14T04:50:00;14.70;87.80
35381;DHT22;21486;51.916;8.378;2023-05-14T04:52:25;14.70;88.20
35381;DHT22;21486;51.916;8.378;2023-05-14T04:54:51;14.70;87.70
35381;DHT22;21486;51.916;8.378;2023-05-14T04:57:17;14.90;87.00
35381;DHT22;21486;51.916;8.378;2023-05-14T04:59:42;15.10;85.40
35381;DHT22;21486;51.916;8.378;2023-05-14T05:02:08;15.40;84.80
35381;DHT22;21486;51.916;8.378;2023-05-14T05:04:33;15.80;82.00
35381;DHT22;21486;51.916;8.378;2023-05-14T05:06:59;16.20;80.10
35381;DHT22;21486;51.916;8.378;2023-05-14T05:09:24;16.80;77.00
35381;DHT22;21486;51.916;8.378;2023-05-14T05:11:50;17.70;72.70
35381;DHT22;21486;51.916;8.378;2023-05-14T05:14:16;18.40;69.10
35381;DHT22;21486;51.916;8.378;2023-05-14T05:16:41;19.20;66.10
35381;DHT22;21486;51.916;8.378;2023-05-14T05:19:07;19.60;62.10
35381;DHT22;21486;51.916;8.378;2023-05-14T05:21:33;20.10;61.90
35381;DHT22;21486;51.916;8.378;2023-05-14T05:23:58;20.20;59.40
35381;DHT22;21486;51.916;8.378;2023-05-14T05:26:25;20.00;59.10
35381;DHT22;21486;51.916;8.378;2023-05-14T05:28:51;19.30;60.70
35381;DHT22;21486;51.916;8.378;2023-05-14T05:31:16;18.90;62.30
35381;DHT22;21486;51.916;8.378;2023-05-14T05:33:42;18.60;62.30
35381;DHT22;21486;51.916;8.378;2023-05-14T05:36:08;18.60;63.40
35381;DHT22;21486;51.916;8.378;2023-05-14T05:38:33;18.90;62.40
35381;DHT22;21486;51.916;8.378;2023-05-14T05:40:59;19.10;61.30
35381;DHT22;21486;51.916;8.378;2023-05-14T05:43:24;18.90;62.40
35381;DHT22;21486;51.916;8.378;2023-05-14T05:45:50;18.90;61.80
35381;DHT22;21486;51.916;8.378;2023-05-14T05:48:15;19.00;61.80
35381;DHT22;21486;51.916;8.378;2023-05-14T05:50:41;19.40;60.40
35381;DHT22;21486;51.916;8.378;2023-05-14T05:53:09;20.20;59.20
35381;DHT22;21486;51.916;8.378;2023-05-14T05:55:34;20.80;57.50
35381;DHT22;21486;51.916;8.378;2023-05-14T05:58:00;21.30;55.90
35381;DHT22;21486;51.916;8.378;2023-05-14T06:00:26;22.10;54.20
35381;DHT22;21486;51.916;8.378;2023-05-14T06:02:51;22.60;52.70
35381;DHT22;21486;51.916;8.378;2023-05-14T06:05:17;22.30;52.40
35381;DHT22;21486;51.916;8.378;2023-05-14T06:07:43;23.50;51.40
35381;DHT22;21486;51.916;8.378;2023-05-14T06:10:09;23.50;49.70
35381;DHT22;21486;51.916;8.378;2023-05-14T06:12:35;23.80;48.50
35381;DHT22;21486;51.916;8.378;2023-05-14T06:15:00;22.20;51.70
35381;DHT22;21486;51.916;8.378;2023-05-14T06:17:26;21.30;53.40
35381;DHT22;21486;51.916;8.378;2023-05-14T06:19:51;20.40;55.90
35381;DHT22;21486;51.916;8.378;2023-05-14T06:22:17;19.50;58.40
35381;DHT22;21486;51.916;8.378;2023-05-14T06:24:43;18.90;60.80
35381;DHT22;21486;51.916;8.378;2023-05-14T06:27:09;18.40;62.70
35381;DHT22;21486;51.916;8.378;2023-05-14T06:29:38;18.40;64.40
35381;DHT22;21486;51.916;8.378;2023-05-14T06:32:04;17.90;64.80
35381;DHT22;21486;51.916;8.378;2023-05-14T06:34:30;17.60;67.00
35381;DHT22;21486;51.916;8.378;2023-05-14T06:36:55;17.70;67.30
35381;DHT22;21486;51.916;8.378;2023-05-14T06:39:22;17.60;68.80
35381;DHT22;21486;51.916;8.378;2023-05-14T06:41:48;17.50;68.40
35381;DHT22;21486;51.916;8.378;2023-05-14T06:44:13;17.50;69.80
35381;DHT22;21486;51.916;8.378;2023-05-14T06:46:39;17.50;69.40
35381;DHT22;21486;51.916;8.378;2023-05-14T06:49:04;17.50;68.40
35381;DHT22;21486;51.916;8.378;2023-05-14T06:51:30;17.60;68.60
35381;DHT22;21486;51.916;8.378;2023-05-14T06:53:55;17.80;68.10
35381;DHT22;21486;51.916;8.378;2023-05-14T06:56:21;18.40;67.00
35381;DHT22;21486;51.916;8.378;2023-05-14T06:58:47;19.10;65.30
35381;DHT22;21486;51.916;8.378;2023-05-14T07:01:13;19.70;62.00
35381;DHT22;21486;51.916;8.378;2023-05-14T07:03:38;20.00;61.80
35381;DHT22;21486;51.916;8.378;2023-05-14T07:06:04;20.40;62.00
35381;DHT22;21486;51.916;8.378;2023-05-14T07:08:31;20.30;63.20
35381;DHT22;21486;51.916;8.378;2023-05-14T07:10:56;20.30;62.70
35381;DHT22;21486;51.916;8.378;2023-05-14T07:13:22;20.20;63.00
35381;DHT22;21486;51.916;8.378;2023-05-14T07:15:48;20.40;60.60
35381;DHT22;21486;51.916;8.378;2023-05-14T07:18:13;20.70;60.60
35381;DHT22;21486;51.916;8.378;2023-05-14T07:20:39;21.10;57.80
35381;DHT22;21486;51.916;8.378;2023-05-14T07:23:04;22.10;56.40
35381;DHT22;21486;51.916;8.378;2023-05-14T07:25:30;22.50;55.20
35381;DHT22;21486;51.916;8.378;2023-05-14T07:27:57;22.00;54.10
35381;DHT22;21486;51.916;8.378;2023-05-14T07:30:22;22.10;55.00
35381;DHT22;21486;51.916;8.378;2023-05-14T07:32:48;21.70;54.60
35381;DHT22;21486;51.916;8.378;2023-05-14T07:35:13;21.10;55.10
35381;DHT22;21486;51.916;8.378;2023-05-14T07:37:39;20.90;56.30
35381;DHT22;21486;51.916;8.378;2023-05-14T07:40:05;21.30;56.50
35381;DHT22;21486;51.916;8.378;2023-05-14T07:42:31;21.60;56.60
35381;DHT22;21486;51.916;8.378;2023-05-14T07:44:56;22.00;54.90
35381;DHT22;21486;51.916;8.378;2023-05-14T07:47:22;21.40;54.60
35381;DHT22;21486;51.916;8.378;2023-05-14T07:49:47;21.60;57.00
35381;DHT22;21486;51.916;8.378;2023-05-14T07:52:13;21.80;55.60
35381;DHT22;21486;51.916;8.378;2023-05-14T07:54:39;22.60;54.60
35381;DHT22;21486;51.916;8.378;2023-05-14T07:57:04;23.20;52.40
35381;DHT22;21486;51.916;8.378;2023-05-14T07:59:30;23.90;51.80
35381;DHT22;21486;51.916;8.378;2023-05-14T08:01:56;24.20;49.50
35381;DHT22;21486;51.916;8.378;2023-05-14T08:04:21;25.40;48.40
35381;DHT22;21486;51.916;8.378;2023-05-14T08:06:48;25.40;48.30
35381;DHT22;21486;51.916;8.378;2023-05-14T08:09:13;26.10;48.20
35381;DHT22;21486;51.916;8.378;2023-05-14T08:11:39;24.60;48.30
35381;DHT22;21486;51.916;8.378;2023-05-14T08:14:05;23.60;50.30
35381;DHT22;21486;51.916;8.378;2023-05-14T08:16:30;23.00;51.50
35381;DHT22;21486;51.916;8.378;2023-05-14T08:18:56;23.30;51.50
35381;DHT22;21486;51.916;8.378;2023-05-14T08:21:21;24.00;51.60
35381;DHT22;21486;51.916;8.378;2023-05-14T08:23:47;24.40;50.40
35381;DHT22;21486;51.916;8.378;2023-05-14T08:26:13;25.20;48.80
35381;DHT22;21486;51.916;8.378;2023-05-14T08:28:38;24.40;48.50
35381;DHT22;21486;51.916;8.378;2023-05-14T08:31:04;24.00;50.00
35381;DHT22;21486;51.916;8.378;2023-05-14T08:33:29;24.90;49.00
35381;DHT22;21486;51.916;8.378;2023-05-14T08:35:55;23.60;50.60
35381;DHT22;21486;51.916;8.378;2023-05-14T08:38:22;23.10;50.90
35381;DHT22;21486;51.916;8.378;2023-05-14T08:40:57;22.80;52.30
35381;DHT22;21486;51.916;8.378;2023-05-14T08:43:30;23.10;51.60
35381;DHT22;21486;51.916;8.378;2023-05-14T08:46:00;23.70;52.10
35381;DHT22;21486;51.916;8.378;2023-05-14T08:48:30;24.00;51.40
35381;DHT22;21486;51.916;8.378;2023-05-14T08:50:57;24.60;49.60
35381;DHT22;21486;51.916;8.378;2023-05-14T08:53:23;25.00;48.50
35381;DHT22;21486;51.916;8.378;2023-05-14T08:55:50;25.40;48.80
35381;DHT22;21486;51.916;8.378;2023-05-14T08:58:15;25.50;48.40
35381;DHT22;21486;51.916;8.378;2023-05-14T09:00:41;23.60;49.60
35381;DHT22;21486;51.916;8.378;2023-05-14T09:03:07;22.40;52.30
35381;DHT22;21486;51.916;8.378;2023-05-14T09:05:32;23.10;52.20
35381;DHT22;21486;51.916;8.378;2023-05-14T09:07:58;22.70;51.00
35381;DHT22;21486;51.916;8.378;2023-05-14T09:10:24;23.90;50.90
35381;DHT22;21486;51.916;8.378;2023-05-14T09:12:50;23.90;49.10
35381;DHT22;21486;51.916;8.378;2023-05-14T09:15:16;24.40;49.60
35381;DHT22;21486;51.916;8.378;2023-05-14T09:17:42;25.10;47.40
35381;DHT22;21486;51.916;8.378;2023-05-14T09:20:09;25.30;45.80
35381;DHT22;21486;51.916;8.378;2023-05-14T09:22:37;24.90;46.60
35381;DHT22;21486;51.916;8.378;2023-05-14T09:25:07;23.90;48.10
35381;DHT22;21486;51.916;8.378;2023-05-14T09:27:37;24.40;47.00
35381;DHT22;21486;51.916;8.378;2023-05-14T09:30:10;25.50;46.20
35381;DHT22;21486;51.916;8.378;2023-05-14T09:32:37;26.00;44.60
35381;DHT22;21486;51.916;8.378;2023-05-14T09:35:11;26.20;43.90
35381;DHT22;21486;51.916;8.378;2023-05-14T09:37:40;25.40;44.60
35381;DHT22;21486;51.916;8.378;2023-05-14T09:40:07;25.50;44.00
35381;DHT22;21486;51.916;8.378;2023-05-14T09:42:33;25.50;42.50
35381;DHT22;21486;51.916;8.378;2023-05-14T09:44:59;24.30;42.90
35381;DHT22;21486;51.916;8.378;2023-05-14T09:47:24;24.10;43.00
35381;DHT22;21486;51.916;8.378;2023-05-14T09:49:51;22.50;47.30
35381;DHT22;21486;51.916;8.378;2023-05-14T09:52:20;22.70;48.40
35381;DHT22;21486;51.916;8.378;2023-05-14T09:54:47;23.60;47.50
35381;DHT22;21486;51.916;8.378;2023-05-14T09:57:15;24.10;45.40
35381;DHT22;21486;51.916;8.378;2023-05-14T09:59:40;23.80;45.90
35381;DHT22;21486;51.916;8.378;2023-05-14T10:02:15;24.20;45.60
35381;DHT22;21486;51.916;8.378;2023-05-14T10:04:47;22.30;48.60
35381;DHT22;21486;51.916;8.378;2023-05-14T10:07:16;22.40;51.20
35381;DHT22;21486;51.916;8.378;2023-05-14T10:09:43;22.50;52.00
35381;DHT22;21486;51.916;8.378;2023-05-14T10:12:10;22.60;50.40
35381;DHT22;21486;51.916;8.378;2023-05-14T10:14:43;21.70;51.60
35381;DHT22;21486;51.916;8.378;2023-05-14T10:17:12;21.90;51.30
35381;DHT22;21486;51.916;8.378;2023-05-14T10:19:47;22.10;49.50
35381;DHT22;21486;51.916;8.378;2023-05-14T10:22:18;22.90;50.40
35381;DHT22;21486;51.916;8.378;2023-05-14T10:24:46;24.50;46.00
35381;DHT22;21486;51.916;8.378;2023-05-14T10:27:14;25.40;44.50
35381;DHT22;21486;51.916;8.378;2023-05-14T10:29:50;25.30;42.70
35381;DHT22;21486;51.916;8.378;2023-05-14T10:32:19;23.90;44.70
35381;DHT22;21486;51.916;8.378;2023-05-14T10:34:45;22.90;46.20
35381;DHT22;21486;51.916;8.378;2023-05-14T10:37:19;21.90;47.20
35381;DHT22;21486;51.916;8.378;2023-05-14T10:39:58;21.10;50.00
35381;DHT22;21486;51.916;8.378;2023-05-14T10:42:27;21.50;51.10
35381;DHT22;21486;51.916;8.378;2023-05-14T10:44:58;22.50;49.60
35381;DHT22;21486;51.916;8.378;2023-05-14T10:47:26;22.70;47.30
35381;DHT22;21486;51.916;8.378;2023-05-14T10:49:57;22.20;47.70
35381;DHT22;21486;51.916;8.378;2023-05-14T10:52:24;22.10;47.90
35381;DHT22;21486;51.916;8.378;2023-05-14T10:54:57;22.70;47.90
35381;DHT22;21486;51.916;8.378;2023-05-14T10:57:25;22.90;46.70
35381;DHT22;21486;51.916;8.378;2023-05-14T10:59:53;22.90;47.10
35381;DHT22;21486;51.916;8.378;2023-05-14T11:02:40;23.50;45.90
35381;DHT22;21486;51.916;8.378;2023-05-14T11:05:10;23.60;46.00
35381;DHT22;21486;51.916;8.378;2023-05-14T11:07:40;23.60;46.40
35381;DHT22;21486;51.916;8.378;2023-05-14T11:10:06;22.30;47.10
35381;DHT22;21486;51.916;8.378;2023-05-14T11:12:34;22.20;48.20
35381;DHT22;21486;51.916;8.378;2023-05-14T11:15:01;21.80;49.30
35381;DHT22;21486;51.916;8.378;2023-05-14T11:17:29;21.30;51.40
35381;DHT22;21486;51.916;8.378;2023-05-14T11:19:56;21.20;51.50
35381;DHT22;21486;51.916;8.378;2023-05-14T11:22:22;21.20;50.90
35381;DHT22;21486;51.916;8.378;2023-05-14T11:24:48;20.80;51.30
35381;DHT22;21486;51.916;8.378;2023-05-14T11:27:14;21.00;53.20
35381;DHT22;21486;51.916;8.378;2023-05-14T11:29:46;21.10;52.60
35381;DHT22;21486;51.916;8.378;2023-05-14T11:32:13;21.40;52.20
35381;DHT22;21486;51.916;8.378;2023-05-14T11:34:39;21.40;52.60
35381;DHT22;21486;51.916;8.378;2023-05-14T11:37:06;21.30;52.30
35381;DHT22;21486;51.916;8.378;2023-05-14T11:39:32;21.20;51.30
35381;DHT22;21486;51.916;8.378;2023-05-14T11:42:01;21.20;53.10
35381;DHT22;21486;51.916;8.378;2023-05-14T11:44:26;21.20;53.80
35381;DHT22;21486;51.916;8.378;2023-05-14T11:46:53;21.40;52.60
35381;DHT22;21486;51.916;8.378;2023-05-14T11:49:23;21.60;52.30
35381;DHT22;21486;51.916;8.378;2023-05-14T11:51:49;21.60;54.30
35381;DHT22;21486;51.916;8.378;2023-05-14T11:54:15;21.60;55.60
35381;DHT22;21486;51.916;8.378;2023-05-14T11:56:41;21.60;54.00
35381;DHT22;21486;51.916;8.378;2023-05-14T11:59:06;21.60;53.40
35381;DHT22;21486;51.916;8.378;2023-05-14T12:01:36;21.60;53.50
35381;DHT22;21486;51.916;8.378;2023-05-14T12:04:03;21.60;54.50
35381;DHT22;21486;51.916;8.378;2023-05-14T12:06:31;21.50;53.50
35381;DHT22;21486;51.916;8.378;2023-05-14T12:08:57;21.40;52.00
35381;DHT22;21486;51.916;8.378;2023-05-14T12:11:23;21.30;53.30
35381;DHT22;21486;51.916;8.378;2023-05-14T12:13:48;21.50;55.80
35381;DHT22;21486;51.916;8.378;2023-05-14T12:16:14;21.50;54.40
35381;DHT22;21486;51.916;8.378;2023-05-14T12:18:40;21.60;52.20
35381;DHT22;21486;51.916;8.378;2023-05-14T12:21:07;21.70;52.40
35381;DHT22;21486;51.916;8.378;2023-05-14T12:23:33;21.70;50.70
35381;DHT22;21486;51.916;8.378;2023-05-14T12:26:07;21.40;51.00
35381;DHT22;21486;51.916;8.378;2023-05-14T12:28:34;21.10;53.00
35381;DHT22;21486;51.916;8.378;2023-05-14T12:31:00;20.70;55.60
35381;DHT22;21486;51.916;8.378;2023-05-14T12:33:26;20.60;56.60
35381;DHT22;21486;51.916;8.378;2023-05-14T12:35:55;20.60;54.50
35381;DHT22;21486;51.916;8.378;2023-05-14T12:38:26;20.70;54.20
35381;DHT22;21486;51.916;8.378;2023-05-14T12:40:52;20.70;56.50
35381;DHT22;21486;51.916;8.378;2023-05-14T12:43:18;21.00;54.80
35381;DHT22;21486;51.916;8.378;2023-05-14T12:45:44;21.00;55.60
35381;DHT22;21486;51.916;8.378;2023-05-14T12:48:10;21.00;55.40
35381;DHT22;21486;51.916;8.378;2023-05-14T12:50:35;20.70;55.60
35381;DHT22;21486;51.916;8.378;2023-05-14T12:53:01;20.40;55.60
35381;DHT22;21486;51.916;8.378;2023-05-14T12:55:26;20.20;56.60
35381;DHT22;21486;51.916;8.378;2023-05-14T12:57:53;20.60;56.80
35381;DHT22;21486;51.916;8.378;2023-05-14T13:00:18;20.80;55.60
35381;DHT22;21486;51.916;8.378;2023-05-14T13:02:44;21.10;57.10
35381;DHT22;21486;51.916;8.378;2023-05-14T13:05:10;21.20;56.60
35381;DHT22;21486;51.916;8.378;2023-05-14T13:07:36;21.10;55.60
35381;DHT22;21486;51.916;8.378;2023-05-14T13:10:01;21.30;55.70
35381;DHT22;21486;51.916;8.378;2023-05-14T13:12:29;21.60;57.30
35381;DHT22;21486;51.916;8.378;2023-05-14T13:14:55;21.80;54.30
35381;DHT22;21486;51.916;8.378;2023-05-14T13:17:21;22.00;55.40
35381;DHT22;21486;51.916;8.378;2023-05-14T13:19:46;22.10;54.30
35381;DHT22;21486;51.916;8.378;2023-05-14T13:22:12;22.20;53.80
35381;DHT22;21486;51.916;8.378;2023-05-14T13:24:38;22.40;50.60
35381;DHT22;21486;51.916;8.378;2023-05-14T13:27:04;22.30;51.50
35381;DHT22;21486;51.916;8.378;2023-05-14T13:29:30;22.20;50.30
35381;DHT22;21486;51.916;8.378;2023-05-14T13:31:55;22.20;51.10
35381;DHT22;21486;51.916;8.378;2023-05-14T13:34:21;22.20;54.50
35381;DHT22;21486;51.916;8.378;2023-05-14T13:36:46;22.40;51.00
35381;DHT22;21486;51.916;8.378;2023-05-14T13:39:14;22.60;51.90
35381;DHT22;21486;51.916;8.378;2023-05-14T13:41:39;22.70;53.40
35381;DHT22;21486;51.916;8.378;2023-05-14T13:44:05;23.10;51.50
35381;DHT22;21486;51.916;8.378;2023-05-14T13:46:31;23.30;49.20
35381;DHT22;21486;51.916;8.378;2023-05-14T13:48:56;23.30;51.50
35381;DHT22;21486;51.916;8.378;2023-05-14T13:51:22;23.30;49.70
35381;DHT22;21486;51.916;8.378;2023-05-14T13:53:48;23.20;47.90
35381;DHT22;21486;51.916;8.378;2023-05-14T13:56:14;23.30;51.20
35381;DHT22;21486;51.916;8.378;2023-05-14T13:58:39;23.60;45.50
35381;DHT22;21486;51.916;8.378;2023-05-14T14:01:05;23.40;42.80
35381;DHT22;21486;51.916;8.378;2023-05-14T14:03:30;22.90;45.10
35381;DHT22;21486;51.916;8.378;2023-05-14T14:05:56;22.80;46.60
35381;DHT22;21486;51.916;8.378;2023-05-14T14:08:22;22.50;48.10
35381;DHT22;21486;51.916;8.378;2023-05-14T14:10:47;22.30;50.00
35381;DHT22;21486;51.916;8.378;2023-05-14T14:13:13;22.20;51.00
35381;DHT22;21486;51.916;8.378;2023-05-14T14:15:38;22.00;52.40
35381;DHT22;21486;51.916;8.378;2023-05-14T14:18:04;21.90;54.60
35381;DHT22;21486;51.916;8.378;2023-05-14T14:20:30;22.00;53.40
35381;DHT22;21486;51.916;8.378;2023-05-14T14:22:55;22.10;52.10
35381;DHT22;21486;51.916;8.378;2023-05-14T14:25:21;22.40;52.30
35381;DHT22;21486;51.916;8.378;2023-05-14T14:27:46;22.60;52.40
35381;DHT22;21486;51.916;8.378;2023-05-14T14:30:13;22.60;51.90
35381;DHT22;21486;51.916;8.378;2023-05-14T14:32:45;22.60;51.40
35381;DHT22;21486;51.916;8.378;2023-05-14T14:35:12;22.70;49.60
35381;DHT22;21486;51.916;8.378;2023-05-14T14:37:38;22.50;51.00
35381;DHT22;21486;51.916;8.378;2023-05-14T14:40:04;22.50;50.80
35381;DHT22;21486;51.916;8.378;2023-05-14T14:42:34;22.40;50.30
35381;DHT22;21486;51.916;8.378;2023-05-14T14:45:00;22.40;51.40
35381;DHT22;21486;51.916;8.378;2023-05-14T14:47:26;22.60;52.00
35381;DHT22;21486;51.916;8.378;2023-05-14T14:49:51;22.60;49.70
35381;DHT22;21486;51.916;8.378;2023-05-14T14:52:17;22.70;49.30
35381;DHT22;21486;51.916;8.378;2023-05-14T14:54:42;22.70;49.40
35381;DHT22;21486;51.916;8.378;2023-05-14T14:57:08;22.60;50.00
35381;DHT22;21486;51.916;8.378;2023-05-14T14:59:34;22.30;51.40
35381;DHT22;21486;51.916;8.378;2023-05-14T15:02:00;22.40;51.40
35381;DHT22;21486;51.916;8.378;2023-05-14T15:04:25;22.30;50.60
35381;DHT22;21486;51.916;8.378;2023-05-14T15:06:51;22.10;51.70
35381;DHT22;21486;51.916;8.378;2023-05-14T15:09:16;21.90;51.30
35381;DHT22;21486;51.916;8.378;2023-05-14T15:11:43;21.50;51.80
35381;DHT22;21486;51.916;8.378;2023-05-14T15:14:08;21.40;53.20
35381;DHT22;21486;51.916;8.378;2023-05-14T15:16:34;21.40;53.30
35381;DHT22;21486;51.916;8.378;2023-05-14T15:19:00;21.40;51.30
35381;DHT22;21486;51.916;8.378;2023-05-14T15:21:25;21.30;52.20
35381;DHT22;21486;51.916;8.378;2023-05-14T15:23:51;21.10;52.80
35381;DHT22;21486;51.916;8.378;2023-05-14T15:26:16;20.90;53.20
35381;DHT22;21486;51.916;8.378;2023-05-14T15:28:42;20.80;48.50
35381;DHT22;21486;51.916;8.378;2023-05-14T15:31:07;20.70;50.50
35381;DHT22;21486;51.916;8.378;2023-05-14T15:33:34;20.50;52.50